Nearby METAR Reports

 

KW29 - Stevensville, Maryland, USA
Distance from station: SSW 13mi, 21km
Updated: Fri, 22-Feb-2019 7:00am EST
Overcast
Overcast
 Wind from NNE
Wind: NNE 6 mph , 9 km/h
Temperature: 45°F , 7°C
Wind Chill: 42°F , 6°C
Dew Point: 27°F , -3°C
Humidity: 49%
Barometer: 30.33 inHg , 1027.1 hPa
Clouds: Overcast
Visibility: 10 miles , 16 km
Cloud details: Overcast 9500 ft
2019/02/22 12:00 KW29 221200Z AUTO 02005KT 10SM OVC095 07/M03 A3033 RMK AO2
KMTN - Baltimore/Martin, Maryland, USA
Distance from station: NW 13mi, 22km
Updated: Fri, 22-Feb-2019 5:45am EST
NOT Current
Overcast
Overcast
 Wind from NNW
Wind: NNW 6 mph , 9 km/h
Temperature: 46°F , 8°C
Wind Chill: 43°F , 6°C
Dew Point: 27°F , -3°C
Humidity: 46%
Barometer: 30.32 inHg , 1026.8 hPa
Clouds: Overcast
Visibility: 10 miles , 16 km
Cloud details: Overcast 11000 ft
2019/02/22 10:45 KMTN 221045Z 33005KT 10SM OVC110 08/M03 A3032
 
KNAK - Annapolis/Naval, Maryland, USA
Distance from station: SW 18mi, 28km
Updated: Fri, 22-Feb-2019 6:54am EST
Overcast
Overcast
 Wind from N
Wind: N 6 mph , 9 km/h
Temperature: 46°F , 8°C
Wind Chill: 43°F , 6°C
Dew Point: 28°F , -2°C
Humidity: 50%
Barometer: 30.33 inHg , 1027.1 hPa
Clouds: Overcast
Visibility: 10 miles , 16 km
Cloud details: Overcast 10000 ft
2019/02/22 11:54 KNAK 221154Z AUTO 35005KT 10SM OVC100 08/M02 A3033 RMK AO2 SLP271 60000 T00831022 10111 20067 53029
KAPG - Aberdeen/Phillip, Maryland, USA
Distance from station: NNE 21mi, 34km
Updated: Fri, 22-Feb-2019 6:50am EST
Overcast
Overcast
 Wind from NW
Wind: NW 5 mph , 7 km/h
Temperature: 41°F , 5°C
Wind Chill: 38°F , 3°C
Dew Point: 27°F , -3°C
Humidity: 57%
Barometer: 30.33 inHg , 1027.1 hPa
Clouds: Overcast
Visibility: 10 miles , 16 km
Cloud details: Mostly cloudy 10000 ft
Overcast 15000 ft
2019/02/22 11:50 KAPG 221150Z 31004KT 10SM BKN100 OVC150 05/M03 A3033 RMK SLP274 52023
 
KDMH - Baltimore/Dwntwn, Maryland, USA
Distance from station: WNW 21mi, 34km
Updated: Fri, 22-Feb-2019 6:54am EST

 
Temperature: 46°F , 8°C
Dew Point: 25°F , -4°C
Humidity: 43%
Barometer: 30.32 inHg , 1026.8 hPa
2019/02/22 11:54 KDMH 221154Z AUTO 08/M04 A3032 RMK AO1 SLP265 T00781044 10100 20078 53022
KBWI - Balto/Wash Intl, Maryland, USA
Distance from station: W 23mi, 37km
Updated: Fri, 22-Feb-2019 6:54am EST
Mostly cloudy
Mostly cloudy
 Wind from varies
Wind: varies 5 mph , 7 km/h
Temperature: 45°F , 7°C
Wind Chill: 42°F , 6°C
Dew Point: 25°F , -4°C
Humidity: 46%
Barometer: 30.31 inHg , 1026.4 hPa
Clouds: Mostly cloudy
Visibility: 10 miles , 16 km
Cloud details: Mostly cloudy 11000 ft
Mostly cloudy 22000 ft
Mostly cloudy 25000 ft
2019/02/22 11:54 KBWI 221154Z VRB04KT 10SM BKN110 BKN220 BKN250 07/M04 A3031 RMK AO2 SLP265 60000 T00721039 10100 20067 51023
 
KESN - Easton/Newnam, Maryland, USA
Distance from station: SSE 27mi, 44km
Updated: Fri, 22-Feb-2019 6:47am EST
Partly cloudy
Partly cloudy
 Wind from N
Wind: N 7 mph , 11 km/h
Temperature: 46°F , 8°C
Wind Chill: 42°F , 6°C
Dew Point: 30°F , -1°C
Humidity: 53%
Barometer: 30.36 inHg , 1028.1 hPa
Clouds: Partly cloudy
Visibility: 10 miles , 16 km
Cloud details: Partly cloudy 8000 ft
2019/02/22 11:47 KESN 221147Z 35006KT 10SM SCT080 08/M01 A3036
KFME - Fort Meade, Maryland, USA
Distance from station: WSW 28mi, 45km
Updated: Fri, 22-Feb-2019 7:03am EST
Overcast
Overcast
 Wind from calm
Wind: Calm
Temperature: 43°F , 6°C
Dew Point: 28°F , -2°C
Humidity: 57%
Barometer: 30.35 inHg , 1027.8 hPa
Clouds: Overcast
Visibility: 10 miles , 16 km
Cloud details: Overcast 11000 ft
2019/02/22 12:03 KFME 221203Z AUTO 00000KT 10SM OVC110 06/M02 A3035 RMK AO1
 
KCGS - College Park, Maryland, USA
Distance from station: WSW 38mi, 61km
Updated: Fri, 22-Feb-2019 7:03am EST
Overcast
Overcast
 Wind from calm
Wind: Calm
Temperature: 43°F , 6°C
Dew Point: 34°F , 1°C
Humidity: 71%
Barometer: 30.33 inHg , 1027.1 hPa
Clouds: Overcast
Visibility: 10 miles , 16 km
Cloud details: Overcast 11000 ft
2019/02/22 12:03 KCGS 221203Z AUTO 00000KT 10SM OVC110 06/01 A3033 RMK AO1 T00590007
KADW - Andrews Afb, Maryland, USA
Distance from station: SW 41mi, 66km
Updated: Fri, 22-Feb-2019 6:56am EST
Overcast
Overcast
 Wind from N
Wind: N 5 mph , 7 km/h
Temperature: 43°F , 6°C
Wind Chill: 40°F , 4°C
Dew Point: 34°F , 1°C
Humidity: 71%
Barometer: 30.32 inHg , 1026.8 hPa
Clouds: Overcast
Visibility: 10 miles , 16 km
Cloud details: Overcast 8000 ft
2019/02/22 11:56 KADW 221156Z AUTO 36004KT 10SM OVC080 06/01 A3032 RMK AO2 SLP275 60004 70004 T00630008 10090 20050 53022 $
 
KDOV - Dover Afb, Delaware, USA
Distance from station: E 42mi, 68km
Updated: Fri, 22-Feb-2019 6:56am EST
Overcast
Overcast
 Wind from NNW
Wind: NNW 8 mph , 13 km/h
Temperature: 43°F , 6°C
Wind Chill: 38°F , 3°C
Dew Point: 30°F , -1°C
Humidity: 61%
Barometer: 30.31 inHg , 1026.4 hPa
Clouds: Overcast
Visibility: 10 miles , 16 km
Cloud details: Overcast 9500 ft
2019/02/22 11:56 KDOV 221156Z AUTO 33007KT 10SM OVC095 06/M01 A3031 RMK AO2 SLP267 60000 T00591013 10083 20058 52024 $
KCGE - Cambridge-Dorch, Maryland, USA
Distance from station: SSE 45mi, 73km
Updated: Fri, 22-Feb-2019 7:00am EST
Overcast
Overcast
 
Temperature: 41°F , 5°C
Dew Point: 41°F , 5°C
Humidity: 100%
Barometer: 30.32 inHg , 1026.8 hPa
Clouds: Overcast
Visibility: 10 miles , 16 km
Cloud details: Overcast 7500 ft
2019/02/22 12:00 KCGE 221200Z AUTO 10SM OVC075 05/05 A3032 RMK A01
 
KDCA - Washington/Natl, Washington D.c., USA
Distance from station: WSW 47mi, 76km
Updated: Fri, 22-Feb-2019 6:52am EST
Overcast
Overcast
 Wind from N
Wind: N 8 mph , 13 km/h
Temperature: 46°F , 8°C
Wind Chill: 42°F , 6°C
Dew Point: 32°F , 0°C
Humidity: 57%
Barometer: 30.34 inHg , 1027.4 hPa
Clouds: Overcast
Visibility: 10 miles , 16 km
Cloud details: Overcast 9000 ft
2019/02/22 11:52 KDCA 221152Z 35007KT 10SM OVC090 08/00 A3034 RMK AO2 SLP272 60002 70002 T00780000 10111 20061 53024
KGAI - Gaithersburg, Maryland, USA
Distance from station: W 49mi, 78km
Updated: Fri, 22-Feb-2019 6:56am EST
Clear
Clear
 Wind from calm
Wind: Calm
Temperature: 41°F , 5°C
Dew Point: 25°F , -4°C
Humidity: 53%
Barometer: 30.32 inHg , 1026.8 hPa
Clouds: Clear
Visibility: 10 miles , 16 km
2019/02/22 11:56 KGAI 221156Z AUTO 00000KT 10SM CLR 05/M04 A3032 RMK AO2 SLP301 60000 T00501044 10067 20044 53022
 
KILG - Wilmington, Delaware, USA
Distance from station: NE 49mi, 79km
Updated: Fri, 22-Feb-2019 6:51am EST
Clear
Clear
 Wind from N
Wind: N 8 mph , 13 km/h
Temperature: 41°F , 5°C
Wind Chill: 36°F , 2°C
Dew Point: 27°F , -3°C
Humidity: 57%
Barometer: 30.32 inHg , 1026.8 hPa
Clouds: Clear
Visibility: 10 miles , 16 km
2019/02/22 11:51 KILG 221151Z 01007KT 10SM CLR 05/M03 A3032 RMK AO2 SLP267 T00501028 10072 20044 53024
KDMW - Carroll Cnty, Maryland, USA
Distance from station: NW 50mi, 80km
Updated: Fri, 22-Feb-2019 7:00am EST
Clear
Clear
 Wind from calm
Wind: Calm
Temperature: 39°F , 4°C
Dew Point: 21°F , -6°C
Humidity: 48%
Barometer: 30.30 inHg , 1026.1 hPa
Clouds: Clear
Visibility: 10 miles , 16 km
2019/02/22 12:00 KDMW 221200Z AUTO 00000KT 10SM CLR 04/M06 A3030 RMK AO2